createdAt,value
2022-12-09T00:01:46.613Z,9.50
2022-12-09T00:04:14.723Z,9.00
2022-12-09T00:06:42.829Z,8.87
2022-12-09T00:09:15.098Z,8.67
2022-12-09T00:11:45.189Z,9.10
2022-12-09T00:14:13.106Z,9.30
2022-12-09T00:16:41.204Z,10.30
2022-12-09T00:19:09.417Z,8.00
2022-12-09T00:21:37.658Z,9.30
2022-12-09T00:24:08.071Z,8.00
2022-12-09T00:26:36.151Z,7.60
2022-12-09T00:29:05.500Z,6.83
2022-12-09T00:31:35.679Z,7.77
2022-12-09T00:34:05.641Z,8.50
2022-12-09T00:36:34.138Z,7.50
2022-12-09T00:39:02.565Z,7.80
2022-12-09T00:41:31.076Z,8.23
2022-12-09T00:43:59.876Z,8.47
2022-12-09T00:46:29.547Z,8.13
2022-12-09T00:48:58.135Z,7.93
2022-12-09T00:51:26.698Z,8.90
2022-12-09T00:53:55.919Z,8.37
2022-12-09T00:56:24.996Z,8.70
2022-12-09T00:58:52.908Z,8.47
2022-12-09T01:01:21.148Z,7.80
2022-12-09T01:03:50.650Z,8.50
2022-12-09T01:06:20.564Z,8.70
2022-12-09T01:08:48.609Z,7.63
2022-12-09T01:11:19.807Z,7.87
2022-12-09T01:13:48.352Z,7.73
2022-12-09T01:16:18.013Z,9.43
2022-12-09T01:18:46.850Z,8.27
2022-12-09T01:21:16.394Z,9.30
2022-12-09T01:23:44.421Z,9.70
2022-12-09T01:26:12.893Z,10.63
2022-12-09T01:28:41.358Z,11.17
2022-12-09T01:31:10.838Z,11.10
2022-12-09T01:33:39.267Z,11.63
2022-12-09T01:36:08.489Z,13.50
2022-12-09T01:38:38.085Z,13.80
2022-12-09T01:41:06.188Z,13.50
2022-12-09T01:43:34.505Z,13.13
2022-12-09T01:46:02.603Z,12.60
2022-12-09T01:48:33.317Z,15.70
2022-12-09T01:51:03.515Z,13.20
2022-12-09T01:53:36.156Z,12.87
2022-12-09T01:56:10.209Z,13.40
2022-12-09T01:58:38.571Z,14.83
2022-12-09T02:01:07.114Z,14.40
2022-12-09T02:03:35.447Z,15.70
2022-12-09T02:06:03.752Z,16.30
2022-12-09T02:08:31.951Z,15.00
2022-12-09T02:11:10.395Z,16.20
2022-12-09T02:13:46.582Z,16.60
2022-12-09T02:16:18.268Z,16.03
2022-12-09T02:18:52.874Z,15.50
2022-12-09T02:21:27.304Z,14.47
2022-12-09T02:24:01.848Z,15.60
2022-12-09T02:26:39.895Z,14.07
2022-12-09T02:29:29.989Z,15.70
2022-12-09T02:32:26.594Z,15.43
2022-12-09T02:35:01.418Z,15.20
2022-12-09T02:37:34.404Z,16.03
2022-12-09T02:40:06.886Z,16.20
2022-12-09T02:42:37.882Z,15.53
2022-12-09T02:45:08.813Z,15.80
2022-12-09T02:47:40.808Z,15.90
2022-12-09T02:50:14.686Z,15.90
2022-12-09T02:52:44.820Z,16.67
2022-12-09T02:55:16.037Z,15.77
2022-12-09T02:57:44.185Z,15.30
2022-12-09T03:00:15.944Z,15.80
2022-12-09T03:02:48.613Z,15.80
2022-12-09T03:05:24.652Z,16.27
2022-12-09T03:07:59.893Z,15.60
2022-12-09T03:10:32.315Z,14.73
2022-12-09T03:13:03.862Z,15.70
2022-12-09T03:15:36.111Z,15.20
2022-12-09T03:18:08.657Z,15.60
2022-12-09T03:20:40.835Z,15.20
2022-12-09T03:23:11.261Z,14.37
2022-12-09T03:25:43.859Z,15.93
2022-12-09T03:28:18.319Z,15.67
2022-12-09T03:30:47.595Z,16.23
2022-12-09T03:33:19.058Z,14.80
2022-12-09T03:35:52.966Z,15.03
2022-12-09T03:38:24.120Z,16.57
2022-12-09T03:40:59.394Z,15.90
2022-12-09T03:43:31.002Z,16.87
2022-12-09T03:46:00.776Z,15.40
2022-12-09T03:48:29.145Z,14.87
2022-12-09T03:51:02.386Z,16.67
2022-12-09T03:53:37.371Z,15.67
2022-12-09T03:56:10.973Z,16.60
2022-12-09T03:58:44.039Z,16.13
2022-12-09T04:01:12.808Z,16.33
2022-12-09T04:03:40.914Z,16.87
2022-12-09T04:06:10.404Z,16.10
2022-12-09T04:08:38.914Z,15.90
2022-12-09T04:11:07.047Z,15.90
2022-12-09T04:13:34.986Z,15.10
2022-12-09T04:16:03.609Z,16.80
2022-12-09T04:18:31.584Z,17.03
2022-12-09T04:20:59.593Z,17.30
2022-12-09T04:23:29.092Z,16.07
2022-12-09T04:25:57.249Z,16.63
2022-12-09T04:28:25.363Z,16.77
2022-12-09T04:30:53.533Z,16.60
2022-12-09T04:33:21.526Z,17.30
2022-12-09T04:35:49.773Z,16.33
2022-12-09T04:38:17.944Z,17.63
2022-12-09T04:40:47.523Z,18.00
2022-12-09T04:43:15.396Z,18.23
2022-12-09T04:45:43.335Z,18.37
2022-12-09T04:48:11.678Z,19.30
2022-12-09T04:50:41.966Z,16.77
2022-12-09T04:53:09.869Z,17.73
2022-12-09T04:55:37.786Z,18.57
2022-12-09T04:58:07.185Z,18.60
2022-12-09T05:00:35.168Z,19.10
2022-12-09T05:03:03.857Z,19.03
2022-12-09T05:05:32.107Z,18.30
2022-12-09T05:08:00.442Z,18.30
2022-12-09T05:10:28.717Z,17.03
2022-12-09T05:12:56.750Z,18.23
2022-12-09T05:15:26.375Z,17.17
2022-12-09T05:17:54.726Z,18.47
2022-12-09T05:20:23.266Z,17.63
2022-12-09T05:22:53.205Z,17.70
2022-12-09T05:25:21.548Z,17.60
2022-12-09T05:27:49.774Z,19.40
2022-12-09T05:30:18.087Z,20.40
2022-12-09T05:32:47.506Z,18.60
2022-12-09T05:35:15.503Z,19.97
2022-12-09T05:37:43.721Z,19.53
2022-12-09T05:40:12.506Z,19.53
2022-12-09T05:42:42.148Z,17.97
2022-12-09T05:45:11.041Z,19.43
2022-12-09T05:47:39.503Z,21.03
2022-12-09T05:50:10.877Z,17.60
2022-12-09T05:52:40.302Z,19.40
2022-12-09T05:55:09.553Z,18.03
2022-12-09T05:57:38.661Z,18.70
2022-12-09T06:00:09.197Z,18.10
2022-12-09T06:02:37.661Z,19.47
2022-12-09T06:05:06.816Z,18.03
2022-12-09T06:07:36.947Z,17.07
2022-12-09T06:10:06.901Z,15.47
2022-12-09T06:12:35.658Z,16.30
2022-12-09T06:15:04.023Z,16.90
2022-12-09T06:17:32.254Z,16.30
2022-12-09T06:20:00.490Z,15.53
2022-12-09T06:22:28.696Z,16.70
2022-12-09T06:24:57.982Z,17.03
2022-12-09T06:27:25.945Z,16.27
2022-12-09T06:29:54.102Z,16.90
2022-12-09T06:32:22.465Z,15.40
2022-12-09T06:34:50.827Z,16.57
2022-12-09T06:37:19.499Z,17.10
2022-12-09T06:39:48.555Z,16.47
2022-12-09T06:42:17.905Z,16.10
2022-12-09T06:44:46.052Z,17.20
2022-12-09T06:47:14.099Z,16.80
2022-12-09T06:49:42.292Z,17.93
2022-12-09T06:52:11.048Z,16.97
2022-12-09T06:54:39.030Z,18.50
2022-12-09T06:57:07.298Z,16.43
2022-12-09T06:59:36.536Z,17.13
2022-12-09T07:02:04.692Z,17.20
2022-12-09T07:04:33.271Z,16.30
2022-12-09T07:07:01.508Z,17.33
2022-12-09T07:09:29.630Z,17.93
2022-12-09T07:11:57.723Z,17.33
2022-12-09T07:14:25.765Z,17.70
2022-12-09T07:16:55.315Z,16.50
2022-12-09T07:19:24.657Z,16.70
2022-12-09T07:21:52.736Z,17.87
2022-12-09T07:24:21.356Z,16.80
2022-12-09T07:26:50.049Z,17.37
2022-12-09T07:29:18.740Z,16.83
2022-12-09T07:31:47.683Z,16.10
2022-12-09T07:34:17.611Z,16.20
2022-12-09T07:36:46.048Z,15.63
2022-12-09T07:39:15.896Z,15.10
2022-12-09T07:41:44.664Z,16.40
2022-12-09T07:44:13.560Z,16.07
2022-12-09T07:46:41.982Z,15.33
2022-12-09T07:49:12.179Z,16.03
2022-12-09T07:51:42.012Z,15.67
2022-12-09T07:54:13.330Z,15.40
2022-12-09T07:56:42.883Z,17.13
2022-12-09T07:59:13.008Z,16.80
2022-12-09T08:01:41.073Z,18.07
2022-12-09T08:04:09.908Z,16.87
2022-12-09T08:06:39.121Z,17.53
2022-12-09T08:09:12.613Z,17.23
2022-12-09T08:11:40.963Z,16.10
2022-12-09T08:14:13.068Z,18.87
2022-12-09T08:16:43.400Z,17.47
2022-12-09T08:19:12.347Z,19.90
2022-12-09T08:21:40.814Z,17.20
2022-12-09T08:24:12.865Z,16.40
2022-12-09T08:26:41.185Z,18.50
2022-12-09T08:29:10.914Z,20.70
2022-12-09T08:31:41.597Z,16.77
2022-12-09T08:34:11.067Z,17.30
2022-12-09T08:36:39.383Z,17.10
2022-12-09T08:39:07.985Z,18.13
2022-12-09T08:41:39.884Z,16.63
2022-12-09T08:44:10.406Z,15.83
2022-12-09T08:46:40.788Z,16.83
2022-12-09T08:49:10.077Z,17.00
2022-12-09T08:51:39.045Z,16.13
2022-12-09T08:54:07.662Z,17.03
2022-12-09T08:56:37.423Z,16.90
2022-12-09T08:59:06.121Z,17.83
2022-12-09T09:01:35.891Z,18.43
2022-12-09T09:04:08.104Z,17.70
2022-12-09T09:06:37.371Z,18.03
2022-12-09T09:09:06.095Z,18.80
2022-12-09T09:11:35.447Z,18.93
2022-12-09T09:14:06.844Z,17.70
2022-12-09T09:16:35.846Z,18.87
2022-12-09T09:19:06.000Z,16.77
2022-12-09T09:21:35.906Z,16.47
2022-12-09T09:24:04.559Z,16.77
2022-12-09T09:26:32.980Z,15.70
2022-12-09T09:29:00.990Z,14.80
2022-12-09T09:31:30.450Z,15.70
2022-12-09T09:33:58.872Z,14.90
2022-12-09T09:36:27.138Z,16.73
2022-12-09T09:38:57.435Z,15.43
2022-12-09T09:41:45.343Z,15.60
2022-12-09T09:44:23.155Z,13.90
2022-12-09T09:46:54.741Z,13.90
2022-12-09T09:49:31.912Z,13.60
2022-12-09T09:52:04.725Z,13.73
2022-12-09T09:54:33.868Z,13.90
2022-12-09T09:57:05.804Z,13.43
2022-12-09T09:59:44.539Z,15.13
2022-12-09T10:02:24.071Z,13.63
2022-12-09T10:05:02.461Z,15.60
2022-12-09T10:07:39.970Z,14.47
2022-12-09T10:10:19.039Z,14.80
2022-12-09T10:13:06.895Z,13.70
2022-12-09T10:15:43.975Z,15.10
2022-12-09T10:18:20.332Z,14.93
2022-12-09T10:20:49.507Z,14.43
2022-12-09T10:23:18.236Z,14.40
2022-12-09T10:25:49.914Z,14.67
2022-12-09T10:28:22.287Z,14.77
2022-12-09T10:30:51.827Z,15.60
2022-12-09T10:33:26.766Z,14.13
2022-12-09T10:35:54.938Z,13.27
2022-12-09T10:38:23.699Z,14.67
2022-12-09T10:41:00.460Z,13.63
2022-12-09T10:43:37.593Z,16.10
2022-12-09T10:46:17.799Z,16.27
2022-12-09T10:48:58.824Z,16.10
2022-12-09T10:51:30.232Z,16.00
2022-12-09T10:54:00.908Z,15.90
2022-12-09T10:56:31.509Z,17.17
2022-12-09T10:59:17.500Z,16.83
2022-12-09T11:01:51.724Z,15.23
2022-12-09T11:04:26.427Z,14.60
2022-12-09T11:06:59.703Z,16.20
2022-12-09T11:09:30.211Z,15.83
2022-12-09T11:11:59.308Z,17.10
2022-12-09T11:14:34.941Z,17.70
2022-12-09T11:17:15.584Z,16.43
2022-12-09T11:19:47.960Z,15.87
2022-12-09T11:22:29.302Z,17.80
2022-12-09T11:25:12.907Z,16.50
2022-12-09T11:27:44.099Z,15.80
2022-12-09T11:30:18.294Z,17.07
2022-12-09T11:32:57.984Z,17.07
2022-12-09T11:35:39.191Z,16.10
2022-12-09T11:38:19.128Z,16.47
2022-12-09T11:41:00.524Z,16.53
2022-12-09T11:43:40.722Z,17.37
2022-12-09T11:46:22.209Z,18.50
2022-12-09T11:48:56.992Z,16.20
2022-12-09T11:51:29.952Z,15.83
2022-12-09T11:54:03.680Z,15.27
2022-12-09T11:56:33.477Z,16.23
2022-12-09T11:59:04.166Z,17.27
2022-12-09T12:01:43.603Z,17.03
2022-12-09T12:04:14.268Z,16.20
2022-12-09T12:06:48.230Z,17.70
2022-12-09T12:09:22.331Z,18.07
2022-12-09T12:11:59.364Z,15.70
2022-12-09T12:14:29.855Z,15.93
2022-12-09T12:17:06.212Z,16.60
2022-12-09T12:19:36.487Z,17.30
2022-12-09T12:22:37.453Z,16.67
2022-12-09T12:25:24.504Z,16.13
2022-12-09T12:28:18.619Z,15.73
2022-12-09T12:30:52.492Z,16.53
2022-12-09T12:36:40.377Z,19.47
2022-12-09T12:39:19.305Z,17.73
2022-12-09T12:41:53.197Z,16.77
2022-12-09T12:44:53.111Z,17.00
2022-12-09T12:47:26.478Z,17.33
2022-12-09T12:50:21.780Z,17.23
2022-12-09T12:52:58.525Z,16.90
2022-12-09T12:55:42.399Z,17.80
2022-12-09T12:58:16.434Z,18.03
2022-12-09T13:01:00.589Z,17.83
2022-12-09T13:03:37.338Z,18.23
2022-12-09T13:06:05.899Z,17.83
2022-12-09T13:08:40.264Z,17.57
2022-12-09T13:11:14.988Z,17.53
2022-12-09T13:13:46.595Z,16.77
2022-12-09T13:16:19.245Z,16.30
2022-12-09T13:18:48.517Z,17.33
2022-12-09T13:21:17.490Z,16.87
2022-12-09T13:24:00.712Z,15.77
2022-12-09T13:26:41.265Z,16.97
2022-12-09T13:29:21.944Z,15.40
2022-12-09T13:31:59.987Z,14.63
2022-12-09T13:34:37.919Z,16.70
2022-12-09T13:37:06.553Z,15.83
2022-12-09T13:39:58.982Z,16.17
2022-12-09T13:42:57.128Z,16.70
2022-12-09T13:45:33.533Z,16.77
2022-12-09T13:48:09.551Z,16.97
2022-12-09T13:50:43.044Z,17.30
2022-12-09T13:53:25.950Z,17.60
2022-12-09T13:55:56.432Z,17.63
2022-12-09T13:58:54.845Z,16.93
2022-12-09T14:01:26.649Z,18.10
2022-12-09T14:04:02.762Z,18.07
2022-12-09T14:06:34.341Z,17.93
2022-12-09T14:09:05.274Z,20.03
2022-12-09T14:11:47.301Z,18.13
2022-12-09T14:14:57.913Z,19.63
2022-12-09T14:18:04.710Z,18.37
2022-12-09T14:20:38.191Z,20.30
2022-12-09T14:23:22.033Z,18.93
2022-12-09T14:26:09.226Z,20.37
2022-12-09T14:29:01.187Z,19.03
2022-12-09T14:32:01.117Z,18.37
2022-12-09T14:34:38.099Z,18.00
2022-12-09T14:37:53.838Z,19.73
2022-12-09T14:40:57.240Z,19.10
2022-12-09T14:43:51.336Z,20.67
2022-12-09T14:46:30.060Z,19.77
2022-12-09T14:48:59.759Z,19.37
2022-12-09T14:51:35.234Z,23.87
2022-12-09T14:54:06.936Z,23.03
2022-12-09T14:56:35.735Z,22.27
2022-12-09T14:59:07.430Z,22.40
2022-12-09T15:01:53.657Z,22.67
2022-12-09T15:04:29.508Z,24.40
2022-12-09T15:07:17.054Z,23.57
2022-12-09T15:09:54.368Z,22.07
2022-12-09T15:12:26.249Z,23.60
2022-12-09T15:14:59.839Z,23.70
2022-12-09T15:17:31.126Z,23.37
2022-12-09T15:20:00.792Z,22.07
2022-12-09T15:22:33.268Z,22.43
2022-12-09T15:25:02.370Z,23.33
2022-12-09T15:27:31.420Z,24.33
2022-12-09T15:29:59.304Z,23.70
2022-12-09T15:32:29.474Z,25.87
2022-12-09T15:35:15.768Z,22.53
2022-12-09T15:37:45.854Z,21.30
2022-12-09T15:40:18.170Z,23.00
2022-12-09T15:42:49.219Z,21.33
2022-12-09T15:45:19.988Z,21.00
2022-12-09T15:47:54.199Z,20.30
2022-12-09T15:50:25.223Z,22.83
2022-12-09T15:52:56.956Z,22.07
2022-12-09T15:55:29.371Z,23.70
2022-12-09T15:58:00.386Z,23.10
2022-12-09T16:00:28.878Z,22.03
2022-12-09T16:02:57.725Z,22.67
2022-12-09T16:05:27.052Z,23.20
2022-12-09T16:07:59.303Z,25.40
2022-12-09T16:10:28.659Z,28.60
2022-12-09T16:13:08.842Z,26.27
2022-12-09T16:15:46.102Z,23.83
2022-12-09T16:18:23.347Z,23.83
2022-12-09T16:21:20.286Z,22.33
2022-12-09T16:23:52.789Z,24.07
2022-12-09T16:26:28.147Z,21.40
2022-12-09T16:29:00.683Z,21.10
2022-12-09T16:31:29.147Z,19.70
2022-12-09T16:33:57.380Z,21.40
2022-12-09T16:36:28.209Z,23.20
2022-12-09T16:39:35.701Z,22.07
2022-12-09T16:42:03.603Z,21.80
2022-12-09T16:44:35.244Z,21.07
2022-12-09T16:47:14.990Z,19.80
2022-12-09T16:49:45.926Z,20.20
2022-12-09T16:52:15.616Z,22.20
2022-12-09T16:54:46.592Z,20.63
2022-12-09T16:57:15.655Z,22.10
2022-12-09T16:59:44.390Z,27.03
2022-12-09T17:02:18.363Z,23.93
2022-12-09T17:04:46.520Z,23.03
2022-12-09T17:07:14.495Z,23.57
2022-12-09T17:09:43.683Z,23.10
2022-12-09T17:12:11.541Z,22.57
2022-12-09T17:14:39.503Z,22.87
2022-12-09T17:17:07.412Z,23.10
2022-12-09T17:19:35.325Z,24.37
2022-12-09T17:22:03.404Z,21.70
2022-12-09T17:24:31.328Z,22.30
2022-12-09T17:27:00.547Z,21.37
2022-12-09T17:29:28.440Z,21.60
2022-12-09T17:31:56.350Z,23.37
2022-12-09T17:34:24.254Z,21.50
2022-12-09T17:36:52.095Z,23.33
2022-12-09T17:39:20.294Z,22.70
2022-12-09T17:41:50.056Z,22.03
2022-12-09T17:44:21.213Z,22.53
2022-12-09T17:46:49.200Z,22.27
2022-12-09T17:49:17.285Z,24.23
2022-12-09T17:51:45.308Z,23.00
2022-12-09T17:54:13.352Z,26.30
2022-12-09T17:56:41.237Z,21.87
2022-12-09T17:59:12.077Z,23.37
2022-12-09T18:01:43.715Z,23.20
2022-12-09T18:04:11.952Z,20.20
2022-12-09T18:06:43.122Z,22.17
2022-12-09T18:09:12.881Z,20.87
2022-12-09T18:11:40.999Z,22.23
2022-12-09T18:14:09.818Z,22.10
2022-12-09T18:16:38.132Z,23.03
2022-12-09T18:19:10.288Z,21.93
2022-12-09T18:21:38.171Z,21.90
2022-12-09T18:24:06.633Z,24.00
2022-12-09T18:26:41.106Z,23.23
2022-12-09T18:29:09.817Z,22.90
2022-12-09T18:31:37.853Z,21.97
2022-12-09T18:34:07.216Z,29.00
2022-12-09T18:36:35.277Z,35.60
2022-12-09T18:39:03.159Z,31.87
2022-12-09T18:41:32.552Z,27.70
2022-12-09T18:44:02.894Z,22.73
2022-12-09T18:46:33.048Z,23.57
2022-12-09T18:49:02.844Z,22.93
2022-12-09T18:51:32.839Z,22.50
2022-12-09T18:54:02.071Z,21.67
2022-12-09T18:56:30.570Z,23.00
2022-12-09T18:59:07.935Z,21.17
2022-12-09T19:01:40.467Z,23.70
2022-12-09T19:04:12.408Z,23.00
2022-12-09T19:06:43.465Z,23.50
2022-12-09T19:09:13.695Z,22.67
2022-12-09T19:11:43.031Z,22.90
2022-12-09T19:14:11.711Z,25.83
2022-12-09T19:16:40.017Z,24.67
2022-12-09T19:19:10.330Z,24.00
2022-12-09T19:21:39.778Z,24.67
2022-12-09T19:24:13.782Z,21.97
2022-12-09T19:26:42.638Z,23.13
2022-12-09T19:29:12.108Z,22.80
2022-12-09T19:31:41.596Z,24.30
2022-12-09T19:34:12.927Z,25.00
2022-12-09T19:36:40.851Z,24.60
2022-12-09T19:39:12.120Z,24.17
2022-12-09T19:41:40.811Z,26.70
2022-12-09T19:44:10.831Z,26.93
2022-12-09T19:46:38.815Z,23.90
2022-12-09T19:49:06.928Z,24.63
2022-12-09T19:51:34.959Z,24.17
2022-12-09T19:54:03.071Z,25.50
2022-12-09T19:56:32.459Z,25.97
2022-12-09T19:59:01.027Z,24.87
2022-12-09T20:01:33.156Z,24.30
2022-12-09T20:04:13.899Z,24.90
2022-12-09T20:06:51.637Z,25.70
2022-12-09T20:09:24.012Z,25.77
2022-12-09T20:11:54.144Z,25.00
2022-12-09T20:14:22.011Z,25.37
2022-12-09T20:16:49.866Z,25.27
2022-12-09T20:19:19.663Z,25.07
2022-12-09T20:21:47.750Z,25.47
2022-12-09T20:24:15.665Z,23.67
2022-12-09T20:26:44.272Z,23.23
2022-12-09T20:29:13.521Z,24.20
2022-12-09T20:31:42.275Z,22.20
2022-12-09T20:34:13.510Z,25.00
2022-12-09T20:36:44.079Z,24.10
2022-12-09T20:39:14.968Z,25.70
2022-12-09T20:41:44.424Z,25.77
2022-12-09T20:44:15.426Z,25.20
2022-12-09T20:46:47.179Z,23.30
2022-12-09T20:49:15.309Z,23.97
2022-12-09T20:51:45.258Z,24.80
2022-12-09T20:54:13.922Z,22.40
2022-12-09T20:56:42.219Z,27.17
2022-12-09T20:59:11.095Z,30.87
2022-12-09T21:01:40.779Z,29.20
2022-12-09T21:04:08.731Z,25.10
2022-12-09T21:06:38.920Z,24.83
2022-12-09T21:09:09.543Z,25.50
2022-12-09T21:11:38.251Z,23.13
2022-12-09T21:14:07.769Z,22.47
2022-12-09T21:16:38.632Z,24.50
2022-12-09T21:19:11.023Z,25.37
2022-12-09T21:21:41.267Z,27.63
2022-12-09T21:24:11.455Z,27.83
2022-12-09T21:26:39.608Z,26.07
2022-12-09T21:29:08.446Z,26.40
2022-12-09T21:31:38.515Z,27.20
2022-12-09T21:34:09.612Z,27.20
2022-12-09T21:36:40.094Z,25.73
2022-12-09T21:39:09.045Z,24.97
2022-12-09T21:41:37.961Z,24.90
2022-12-09T21:44:07.134Z,25.03
2022-12-09T21:46:37.169Z,25.57
2022-12-09T21:49:07.546Z,23.40
2022-12-09T21:51:36.271Z,24.83
2022-12-09T21:54:04.749Z,24.20
2022-12-09T21:56:35.041Z,24.13
2022-12-09T21:59:04.132Z,22.53
2022-12-09T22:01:33.896Z,25.73
2022-12-09T22:04:03.279Z,23.97
2022-12-09T22:06:32.688Z,22.70
2022-12-09T22:09:01.242Z,23.70
2022-12-09T22:11:31.068Z,24.43
2022-12-09T22:14:00.883Z,25.50
2022-12-09T22:16:31.267Z,23.67
2022-12-09T22:19:00.580Z,23.43
2022-12-09T22:21:30.631Z,23.40
2022-12-09T22:24:02.721Z,23.53
2022-12-09T22:26:31.298Z,22.90
2022-12-09T22:29:00.558Z,23.37
2022-12-09T22:31:30.433Z,22.90
2022-12-09T22:34:01.592Z,21.43
2022-12-09T22:36:29.712Z,22.40
2022-12-09T22:38:58.954Z,22.50
2022-12-09T22:41:29.744Z,23.03
2022-12-09T22:43:58.364Z,22.20
2022-12-09T22:46:28.005Z,22.50
2022-12-09T22:48:57.587Z,22.30
2022-12-09T22:51:28.237Z,21.80
2022-12-09T22:53:57.304Z,22.67
2022-12-09T22:56:26.975Z,21.17
2022-12-09T22:58:55.480Z,21.20
2022-12-09T23:01:25.629Z,22.03
2022-12-09T23:03:54.483Z,20.80
2022-12-09T23:06:22.589Z,21.30
2022-12-09T23:08:50.499Z,22.60
2022-12-09T23:11:20.929Z,29.30
2022-12-09T23:13:50.500Z,27.60
2022-12-09T23:16:20.812Z,26.30
2022-12-09T23:18:49.200Z,26.03
2022-12-09T23:21:19.328Z,24.43
2022-12-09T23:23:47.750Z,24.63
2022-12-09T23:26:19.112Z,23.20
2022-12-09T23:28:48.832Z,22.37
2022-12-09T23:31:19.996Z,21.97
2022-12-09T23:33:49.292Z,25.73
2022-12-09T23:36:19.405Z,29.37
2022-12-09T23:38:48.773Z,26.07
2022-12-09T23:41:19.288Z,22.10
2022-12-09T23:43:48.741Z,21.20
2022-12-09T23:46:19.688Z,21.27
2022-12-09T23:48:49.124Z,20.73
2022-12-09T23:51:18.722Z,20.97
2022-12-09T23:53:47.766Z,22.10
2022-12-09T23:56:18.343Z,22.30
2022-12-09T23:58:47.333Z,21.70
